createdAt,value
2023-01-05T00:01:53.479Z,68212.19
2023-01-05T00:04:20.997Z,68218.59
2023-01-05T00:06:57.673Z,68219.34
2023-01-05T00:09:25.167Z,68230.13
2023-01-05T00:12:11.176Z,68230.88
2023-01-05T00:14:57.069Z,68227.28
2023-01-05T00:17:45.037Z,68227.84
2023-01-05T00:20:38.147Z,68230.13
2023-01-05T00:23:06.098Z,68225.97
2023-01-05T00:25:36.513Z,68240.09
2023-01-05T00:28:04.413Z,68234.44
2023-01-05T00:30:38.101Z,68240.88
2023-01-05T00:33:08.748Z,68238.22
2023-01-05T00:35:36.105Z,68255.41
2023-01-05T00:38:07.952Z,68246.53
2023-01-05T00:40:36.026Z,68253.72
2023-01-05T00:43:10.470Z,68258.06
2023-01-05T00:45:38.490Z,68250.31
2023-01-05T00:48:13.974Z,68250.69
2023-01-05T00:50:41.234Z,68252.97
2023-01-05T00:53:09.079Z,68259.56
2023-01-05T00:55:36.412Z,68257.31
2023-01-05T00:58:04.436Z,68249.34
2023-01-05T01:00:32.172Z,68249.19
2023-01-05T01:03:01.451Z,68249.19
2023-01-05T01:05:29.027Z,68249.94
2023-01-05T01:07:57.519Z,68249.75
2023-01-05T01:10:25.591Z,68252.38
2023-01-05T01:12:55.209Z,68249.00
2023-01-05T01:15:22.600Z,68239.56
2023-01-05T01:17:49.899Z,68247.69
2023-01-05T01:20:17.900Z,68241.63
2023-01-05T01:22:49.811Z,68243.91
2023-01-05T01:25:17.450Z,68247.84
2023-01-05T01:27:50.353Z,68247.09
2023-01-05T01:30:17.995Z,68259.19
2023-01-05T01:32:45.661Z,68250.88
2023-01-05T01:35:14.050Z,68249.56
2023-01-05T01:37:41.445Z,68241.25
2023-01-05T01:40:12.761Z,68244.66
2023-01-05T01:42:41.387Z,68253.91
2023-01-05T01:45:24.807Z,68258.25
2023-01-05T01:48:00.895Z,68249.34
2023-01-05T01:50:42.099Z,68256.16
2023-01-05T01:53:14.942Z,68250.13
2023-01-05T01:55:43.764Z,68251.44
2023-01-05T01:58:15.324Z,68252.00
2023-01-05T02:00:43.461Z,68245.97
2023-01-05T02:03:11.351Z,68248.81
2023-01-05T02:05:39.711Z,68236.53
2023-01-05T02:08:16.095Z,68235.97
2023-01-05T02:11:01.919Z,68238.59
2023-01-05T02:13:48.044Z,68239.38
2023-01-05T02:16:24.668Z,68241.06
2023-01-05T02:19:13.745Z,68240.88
2023-01-05T02:22:30.584Z,68236.16
2023-01-05T02:25:48.902Z,68232.38
2023-01-05T02:28:38.128Z,68235.97
2023-01-05T02:31:08.498Z,68235.59
2023-01-05T02:34:13.272Z,68180.47
2023-01-05T02:37:06.275Z,68170.44
2023-01-05T02:39:58.686Z,68155.38
2023-01-05T02:42:30.999Z,68139.69
2023-01-05T02:45:02.792Z,68141.41
2023-01-05T02:47:30.387Z,68147.06
2023-01-05T02:50:10.253Z,68149.31
2023-01-05T02:52:54.577Z,68158.56
2023-01-05T02:55:29.871Z,68159.88
2023-01-05T02:58:17.712Z,68163.28
2023-01-05T03:00:52.285Z,68177.81
2023-01-05T03:03:25.803Z,68188.38
2023-01-05T03:05:59.725Z,68191.22
2023-01-05T03:08:36.613Z,68200.47
2023-01-05T03:11:27.623Z,68208.03
2023-01-05T03:14:14.032Z,68201.63
2023-01-05T03:16:45.994Z,68208.97
2023-01-05T03:19:39.878Z,68210.09
2023-01-05T03:22:47.195Z,68209.16
2023-01-05T03:25:37.724Z,68231.81
2023-01-05T03:28:33.915Z,68222.38
2023-01-05T03:31:32.917Z,68221.22
2023-01-05T03:34:34.808Z,68222.38
2023-01-05T03:37:07.537Z,68231.25
2023-01-05T03:39:38.792Z,68228.41
2023-01-05T03:42:10.245Z,68223.88
2023-01-05T03:44:45.024Z,68231.06
2023-01-05T03:47:15.768Z,68245.22
2023-01-05T03:49:44.879Z,68240.31
2023-01-05T03:52:12.582Z,68229.38
2023-01-05T03:54:42.032Z,68229.38
2023-01-05T03:57:09.491Z,68236.53
2023-01-05T03:59:36.992Z,68242.38
2023-01-05T04:02:05.187Z,68222.38
2023-01-05T04:04:33.487Z,68210.47
2023-01-05T04:07:05.569Z,68197.63
2023-01-05T04:09:34.454Z,68172.91
2023-01-05T04:12:02.464Z,68130.09
2023-01-05T04:14:34.180Z,68098.53
2023-01-05T04:17:01.579Z,68075.19
2023-01-05T04:19:28.989Z,68071.56
2023-01-05T04:21:57.061Z,68068.19
2023-01-05T04:24:26.034Z,68073.66
2023-01-05T04:26:53.267Z,68075.19
2023-01-05T04:29:24.502Z,68071.41
2023-01-05T04:31:51.838Z,68069.53
2023-01-05T04:34:21.104Z,68105.34
2023-01-05T04:36:50.842Z,68101.75
2023-01-05T04:39:21.037Z,68116.09
2023-01-05T04:41:50.790Z,68108.94
2023-01-05T04:44:20.665Z,68105.75
2023-01-05T04:46:50.415Z,68119.13
2023-01-05T04:49:19.620Z,68111.19
2023-01-05T04:51:49.627Z,68126.13
2023-01-05T04:54:18.129Z,68134.03
2023-01-05T04:56:45.718Z,68122.72
2023-01-05T04:59:14.097Z,68139.69
2023-01-05T05:01:43.713Z,68134.78
2023-01-05T05:04:13.659Z,68132.16
2023-01-05T05:06:41.913Z,68133.28
2023-01-05T05:09:09.581Z,68133.84
2023-01-05T05:11:39.277Z,68135.56
2023-01-05T05:14:08.880Z,68138.19
2023-01-05T05:16:36.292Z,68123.47
2023-01-05T05:19:06.669Z,68129.53
2023-01-05T05:21:34.037Z,68129.16
2023-01-05T05:24:01.678Z,68119.91
2023-01-05T05:26:29.134Z,68127.06
2023-01-05T05:29:16.534Z,68128.19
2023-01-05T05:32:08.752Z,68125.34
2023-01-05T05:34:39.006Z,68121.97
2023-01-05T05:37:36.717Z,68133.84
2023-01-05T05:40:06.904Z,68120.84
2023-01-05T05:42:34.374Z,68121.03
2023-01-05T05:45:01.931Z,68117.41
2023-01-05T05:47:39.945Z,68105.53
2023-01-05T05:50:18.367Z,68107.59
2023-01-05T05:52:47.960Z,68101.56
2023-01-05T05:55:24.594Z,68098.38
2023-01-05T05:57:51.984Z,68107.03
2023-01-05T06:00:19.509Z,68100.63
2023-01-05T06:02:47.385Z,68108.56
2023-01-05T06:05:14.870Z,68114.97
2023-01-05T06:07:42.519Z,68110.06
2023-01-05T06:10:12.679Z,68111.97
2023-01-05T06:12:40.118Z,68109.50
2023-01-05T06:15:08.329Z,68107.22
2023-01-05T06:17:35.684Z,68108.72
2023-01-05T06:20:03.614Z,68116.28
2023-01-05T06:22:31.282Z,68107.22
2023-01-05T06:24:58.568Z,68101.19
2023-01-05T06:27:25.834Z,68101.75
2023-01-05T06:29:53.825Z,68100.06
2023-01-05T06:32:21.279Z,68107.78
2023-01-05T06:34:48.617Z,68097.78
2023-01-05T06:37:37.818Z,68111.75
2023-01-05T06:40:15.544Z,68108.00
2023-01-05T06:42:47.280Z,68106.28
2023-01-05T06:45:15.833Z,68112.91
2023-01-05T06:47:44.238Z,68112.69
2023-01-05T06:50:11.692Z,68100.63
2023-01-05T06:52:40.556Z,68114.59
2023-01-05T06:55:10.299Z,68112.72
2023-01-05T06:57:42.196Z,68109.88
2023-01-05T07:00:11.598Z,68107.78
2023-01-05T07:02:39.496Z,68109.13
2023-01-05T07:05:08.154Z,68108.75
2023-01-05T07:07:38.520Z,68111.38
2023-01-05T07:10:07.826Z,68113.84
2023-01-05T07:12:43.766Z,68111.00
2023-01-05T07:15:11.505Z,68105.75
2023-01-05T07:17:38.877Z,68114.59
2023-01-05T07:20:08.178Z,68117.41
2023-01-05T07:22:37.521Z,68115.72
2023-01-05T07:25:05.336Z,68112.34
2023-01-05T07:27:33.083Z,68118.19
2023-01-05T07:30:00.461Z,68109.69
2023-01-05T07:32:27.801Z,68106.28
2023-01-05T07:34:56.196Z,68110.25
2023-01-05T07:37:25.901Z,68107.78
2023-01-05T07:39:54.565Z,68111.56
2023-01-05T07:42:22.310Z,68106.84
2023-01-05T07:44:52.374Z,68114.97
2023-01-05T07:47:19.706Z,68108.94
2023-01-05T07:49:47.257Z,68109.50
2023-01-05T07:52:14.615Z,68104.78
2023-01-05T07:54:41.971Z,68072.91
2023-01-05T07:57:11.615Z,68071.56
2023-01-05T07:59:39.316Z,68064.25
2023-01-05T08:02:06.752Z,68066.13
2023-01-05T08:04:34.202Z,68073.84
2023-01-05T08:07:02.471Z,68059.34
2023-01-05T08:09:48.809Z,68049.91
2023-01-05T08:12:18.339Z,68048.97
2023-01-05T08:14:45.860Z,68051.78
2023-01-05T08:17:13.201Z,68060.84
2023-01-05T08:19:41.671Z,68063.88
2023-01-05T08:22:09.038Z,68082.16
2023-01-05T08:24:37.837Z,68077.44
2023-01-05T08:27:07.172Z,68067.06
2023-01-05T08:29:34.592Z,68057.81
2023-01-05T08:32:02.699Z,68052.91
2023-01-05T08:34:34.597Z,68043.50
2023-01-05T08:37:05.115Z,68047.63
2023-01-05T08:39:32.589Z,68044.41
2023-01-05T08:42:02.945Z,68045.56
2023-01-05T08:44:31.112Z,68044.63
2023-01-05T08:47:02.268Z,68056.88
2023-01-05T08:49:29.717Z,68047.81
2023-01-05T08:51:57.340Z,68042.75
2023-01-05T08:54:26.276Z,68051.59
2023-01-05T08:56:58.720Z,68050.28
2023-01-05T08:59:28.951Z,68054.41
2023-01-05T09:01:56.659Z,68057.66
2023-01-05T09:04:25.044Z,68061.59
2023-01-05T09:06:53.388Z,68071.78
2023-01-05T09:09:24.349Z,68083.09
2023-01-05T09:11:52.145Z,68115.34
2023-01-05T09:14:19.491Z,68136.69
2023-01-05T09:17:06.482Z,68119.13
2023-01-05T09:19:34.370Z,68096.47
2023-01-05T09:22:02.976Z,68078.94
2023-01-05T09:24:30.356Z,68072.91
2023-01-05T09:26:59.273Z,68061.78
2023-01-05T09:29:26.841Z,68069.53
2023-01-05T09:31:54.283Z,68067.44
2023-01-05T09:34:21.782Z,68079.13
2023-01-05T09:36:49.165Z,68105.53
2023-01-05T09:39:16.487Z,68107.78
2023-01-05T09:41:57.023Z,68123.66
2023-01-05T09:44:42.789Z,68115.56
2023-01-05T09:47:37.569Z,68138.94
2023-01-05T09:50:07.554Z,68142.72
2023-01-05T09:52:38.286Z,68159.72
2023-01-05T09:55:21.924Z,68156.13
2023-01-05T09:58:08.095Z,68161.03
2023-01-05T10:00:37.360Z,68158.38
2023-01-05T10:03:37.083Z,68171.78
2023-01-05T10:06:06.460Z,68172.53
2023-01-05T10:08:40.955Z,68154.03
2023-01-05T10:11:33.074Z,68181.03
2023-01-05T10:14:16.072Z,68175.19
2023-01-05T10:16:45.203Z,68144.97
2023-01-05T10:19:21.294Z,68122.72
2023-01-05T10:22:07.736Z,68156.13
2023-01-05T10:24:47.309Z,68157.06
2023-01-05T10:27:34.852Z,68159.31
2023-01-05T10:30:34.392Z,68150.09
2023-01-05T10:33:25.985Z,68115.91
2023-01-05T10:36:12.114Z,68127.63
2023-01-05T10:38:40.510Z,68101.38
2023-01-05T10:41:24.722Z,68074.97
2023-01-05T10:44:31.203Z,68061.03
2023-01-05T10:46:59.374Z,68091.41
2023-01-05T10:49:30.227Z,68107.78
2023-01-05T10:52:00.764Z,68130.63
2023-01-05T10:54:49.166Z,68101.41
2023-01-05T10:57:34.187Z,68083.81
2023-01-05T11:00:11.271Z,68098.00
2023-01-05T11:02:48.629Z,68084.59
2023-01-05T11:05:32.304Z,68080.06
2023-01-05T11:08:03.848Z,68065.56
2023-01-05T11:10:51.332Z,68077.22
2023-01-05T11:13:28.794Z,68076.50
2023-01-05T11:16:20.702Z,68093.66
2023-01-05T11:19:01.920Z,68096.28
2023-01-05T11:21:39.498Z,68076.88
2023-01-05T11:24:26.936Z,68073.66
2023-01-05T11:27:00.153Z,68060.47
2023-01-05T11:29:28.744Z,68063.88
2023-01-05T11:31:59.091Z,68104.38
2023-01-05T11:34:50.040Z,68115.72
2023-01-05T11:37:30.937Z,68115.91
2023-01-05T11:40:03.382Z,68123.47
2023-01-05T11:42:34.220Z,68115.72
2023-01-05T11:45:17.382Z,68098.38
2023-01-05T11:47:46.323Z,68092.13
2023-01-05T11:50:13.786Z,68099.50
2023-01-05T11:52:46.556Z,68123.84
2023-01-05T11:55:20.016Z,68135.34
2023-01-05T11:57:59.412Z,68163.09
2023-01-05T12:00:47.620Z,68173.28
2023-01-05T12:03:27.115Z,68160.44
2023-01-05T12:05:57.956Z,68133.09
2023-01-05T12:08:44.816Z,68153.66
2023-01-05T12:11:19.427Z,68165.00
2023-01-05T12:14:07.066Z,68152.72
2023-01-05T12:16:49.271Z,68137.44
2023-01-05T12:19:34.839Z,68138.00
2023-01-05T12:22:17.718Z,68134.59
2023-01-05T12:25:19.213Z,68119.91
2023-01-05T12:28:03.264Z,68108.38
2023-01-05T12:34:13.758Z,68104.22
2023-01-05T12:37:10.937Z,68114.22
2023-01-05T12:39:38.279Z,68130.09
2023-01-05T12:42:23.874Z,68135.56
2023-01-05T12:45:03.443Z,68126.28
2023-01-05T12:47:42.959Z,68109.69
2023-01-05T12:50:13.731Z,68105.16
2023-01-05T12:52:48.139Z,68092.72
2023-01-05T12:55:22.409Z,68066.31
2023-01-05T12:57:57.583Z,68048.38
2023-01-05T13:00:28.881Z,68039.91
2023-01-05T13:03:10.971Z,68043.84
2023-01-05T13:05:48.984Z,68042.75
2023-01-05T13:08:40.508Z,68039.34
2023-01-05T13:11:11.520Z,68039.16
2023-01-05T13:13:44.091Z,68067.81
2023-01-05T13:16:32.928Z,68059.53
2023-01-05T13:19:06.115Z,68066.50
2023-01-05T13:21:36.337Z,68058.00
2023-01-05T13:24:09.977Z,68047.81
2023-01-05T13:26:38.490Z,68037.28
2023-01-05T13:29:06.049Z,68043.09
2023-01-05T13:31:41.906Z,68043.84
2023-01-05T13:34:11.912Z,68037.28
2023-01-05T13:36:45.488Z,68030.50
2023-01-05T13:39:43.999Z,68025.41
2023-01-05T13:42:38.170Z,68016.53
2023-01-05T13:45:23.845Z,68023.50
2023-01-05T13:48:13.140Z,68018.41
2023-01-05T13:50:55.888Z,68011.06
2023-01-05T13:53:27.967Z,68005.78
2023-01-05T13:56:04.282Z,67993.34
2023-01-05T13:58:40.774Z,67971.13
2023-01-05T14:01:16.028Z,67960.38
2023-01-05T14:03:57.580Z,67954.34
2023-01-05T14:06:35.573Z,67954.72
2023-01-05T14:09:08.549Z,67955.47
2023-01-05T14:11:36.905Z,67948.09
2023-01-05T14:14:11.218Z,67935.69
2023-01-05T14:16:38.861Z,67940.56
2023-01-05T14:19:26.300Z,67931.91
2023-01-05T14:22:00.955Z,67929.66
2023-01-05T14:24:48.291Z,67926.06
2023-01-05T14:27:17.253Z,67914.94
2023-01-05T14:29:44.899Z,67913.06
2023-01-05T14:32:26.760Z,67901.59
2023-01-05T14:35:06.465Z,67909.13
2023-01-05T14:38:11.049Z,67904.03
2023-01-05T14:40:45.841Z,67895.75
2023-01-05T14:43:32.868Z,67892.91
2023-01-05T14:46:18.662Z,67891.22
2023-01-05T14:49:06.924Z,67886.91
2023-01-05T14:51:36.667Z,67886.34
2023-01-05T14:54:05.951Z,67888.41
2023-01-05T14:56:36.363Z,67884.81
2023-01-05T14:59:23.834Z,67878.06
2023-01-05T15:02:00.669Z,67881.06
2023-01-05T15:04:30.072Z,67883.47
2023-01-05T15:07:03.373Z,67883.69
2023-01-05T15:09:44.242Z,67885.56
2023-01-05T15:12:50.899Z,67880.69
2023-01-05T15:19:34.603Z,67880.13
2023-01-05T15:22:36.295Z,67882.75
2023-01-05T15:25:28.604Z,67879.94
2023-01-05T15:28:23.652Z,67873.16
2023-01-05T15:31:07.503Z,67868.84
2023-01-05T15:33:46.012Z,67874.63
2023-01-05T15:36:25.227Z,67872.94
2023-01-05T15:38:52.789Z,67869.19
2023-01-05T15:41:22.640Z,67859.78
2023-01-05T15:43:51.329Z,67859.78
2023-01-05T15:46:23.961Z,67871.25
2023-01-05T15:48:55.242Z,67869.75
2023-01-05T15:51:29.121Z,67870.88
2023-01-05T15:54:06.079Z,67870.69
2023-01-05T15:56:40.879Z,67869.00
2023-01-05T15:59:28.671Z,67867.28
2023-01-05T16:01:56.339Z,67860.94
2023-01-05T16:04:24.929Z,67860.16
2023-01-05T16:07:01.877Z,67855.44
2023-01-05T16:09:37.311Z,67850.41
2023-01-05T16:12:24.970Z,67860.53
2023-01-05T16:15:04.728Z,67853.94
2023-01-05T16:17:38.188Z,67853.94
2023-01-05T16:20:16.205Z,67852.25
2023-01-05T16:23:08.135Z,67846.03
2023-01-05T16:25:42.221Z,67852.38
2023-01-05T16:28:17.869Z,67848.47
2023-01-05T16:30:48.896Z,67846.22
2023-01-05T16:33:36.065Z,67846.56
2023-01-05T16:36:20.599Z,67851.13
2023-01-05T16:38:49.467Z,67849.00
2023-01-05T16:41:27.108Z,67833.78
2023-01-05T16:44:02.095Z,67828.69
2023-01-05T16:46:38.053Z,67823.22
2023-01-05T16:49:34.181Z,67810.06
2023-01-05T16:52:05.469Z,67804.22
2023-01-05T16:54:44.503Z,67799.13
2023-01-05T16:57:31.052Z,67793.69
2023-01-05T16:59:58.572Z,67785.03
2023-01-05T17:02:42.633Z,67787.84
2023-01-05T17:05:13.205Z,67787.84
2023-01-05T17:07:44.958Z,67787.28
2023-01-05T17:10:26.249Z,67791.22
2023-01-05T17:13:00.840Z,67796.50
2023-01-05T17:15:46.299Z,67794.25
2023-01-05T17:20:51.764Z,67789.16
2023-01-05T17:23:47.990Z,67785.03
2023-01-05T17:26:30.705Z,67788.41
2023-01-05T17:31:30.353Z,67792.16
2023-01-05T17:33:59.532Z,67798.94
2023-01-05T17:36:31.916Z,67791.63
2023-01-05T17:39:00.917Z,67796.50
2023-01-05T17:41:28.463Z,67805.53
2023-01-05T17:43:56.465Z,67804.38
2023-01-05T17:46:29.208Z,67798.56
2023-01-05T17:49:00.730Z,67802.91
2023-01-05T17:51:31.247Z,67804.78
2023-01-05T17:54:02.621Z,67805.34
2023-01-05T17:56:33.945Z,67810.25
2023-01-05T17:59:05.587Z,67807.97
2023-01-05T18:01:39.537Z,67810.25
2023-01-05T18:04:10.943Z,67810.59
2023-01-05T18:06:52.172Z,67805.72
2023-01-05T18:11:53.756Z,67801.97
2023-01-05T18:14:21.801Z,67805.16
2023-01-05T18:16:49.858Z,67799.34
2023-01-05T18:19:17.735Z,67801.38
2023-01-05T18:21:45.736Z,67799.13
2023-01-05T18:24:14.658Z,67800.47
2023-01-05T18:26:53.934Z,67806.63
2023-01-05T18:29:24.135Z,67800.28
2023-01-05T18:31:54.172Z,67800.84
2023-01-05T18:34:23.249Z,67789.16
2023-01-05T18:36:58.298Z,67784.09
2023-01-05T18:39:33.560Z,67784.47
2023-01-05T18:42:01.011Z,67783.34
2023-01-05T18:44:28.899Z,67785.22
2023-01-05T18:46:56.643Z,67785.22
2023-01-05T18:49:25.651Z,67792.94
2023-01-05T18:51:53.525Z,67788.81
2023-01-05T18:54:21.327Z,67792.38
2023-01-05T18:56:48.866Z,67794.63
2023-01-05T18:59:16.548Z,67787.50
2023-01-05T19:01:45.514Z,67787.28
2023-01-05T19:04:15.833Z,67783.53
2023-01-05T19:06:44.208Z,67786.50
2023-01-05T19:09:14.082Z,67781.06
2023-01-05T19:11:49.078Z,67775.44
2023-01-05T19:14:19.521Z,67777.13
2023-01-05T19:16:49.217Z,67783.69
2023-01-05T19:19:16.992Z,67778.81
2023-01-05T19:21:45.445Z,67773.72
2023-01-05T19:24:21.871Z,67775.25
2023-01-05T19:26:51.028Z,67771.09
2023-01-05T19:29:20.515Z,67773.72
2023-01-05T19:31:49.345Z,67771.84
2023-01-05T19:34:21.353Z,67767.72
2023-01-05T19:36:49.780Z,67772.63
2023-01-05T19:39:20.057Z,67778.06
2023-01-05T19:41:49.054Z,67770.91
2023-01-05T19:44:21.219Z,67767.72
2023-01-05T19:46:51.996Z,67770.56
2023-01-05T19:49:24.793Z,67772.25
2023-01-05T19:51:53.119Z,67770.00
2023-01-05T19:54:22.666Z,67776.34
2023-01-05T19:56:50.884Z,67771.09
2023-01-05T19:59:22.061Z,67774.88
2023-01-05T20:01:49.755Z,67775.63
2023-01-05T20:04:17.313Z,67772.03
2023-01-05T20:06:45.919Z,67766.97
2023-01-05T20:09:17.425Z,67767.91
2023-01-05T20:11:51.699Z,67772.97
2023-01-05T20:14:25.197Z,67772.41
2023-01-05T20:17:01.886Z,67770.56
2023-01-05T20:19:31.211Z,67776.00
2023-01-05T20:22:00.956Z,67774.50
2023-01-05T20:24:31.082Z,67776.91
2023-01-05T20:27:02.470Z,67771.09
2023-01-05T20:29:30.811Z,67770.56
2023-01-05T20:32:20.159Z,67772.97
2023-01-05T20:34:52.708Z,67764.69
2023-01-05T20:37:23.777Z,67763.75
2023-01-05T20:40:00.045Z,67753.97
2023-01-05T20:42:29.480Z,67750.03
2023-01-05T20:44:57.015Z,67754.34
2023-01-05T20:47:26.242Z,67751.53
2023-01-05T20:49:55.663Z,67751.53
2023-01-05T20:52:23.117Z,67745.16
2023-01-05T20:54:53.252Z,67743.47
2023-01-05T20:57:21.679Z,67741.56
2023-01-05T20:59:51.350Z,67742.28
2023-01-05T21:02:24.369Z,67731.97
2023-01-05T21:04:53.582Z,67720.31
2023-01-05T21:07:21.645Z,67719.91
2023-01-05T21:09:51.658Z,67719.75
2023-01-05T21:12:20.269Z,67721.03
2023-01-05T21:14:47.773Z,67717.31
2023-01-05T21:17:15.469Z,67721.81
2023-01-05T21:19:43.022Z,67720.88
2023-01-05T21:22:10.701Z,67719.75
2023-01-05T21:24:38.314Z,67722.19
2023-01-05T21:27:05.863Z,67722.94
2023-01-05T21:29:34.327Z,67718.41
2023-01-05T21:32:02.331Z,67718.78
2023-01-05T21:34:29.856Z,67722.19
2023-01-05T21:36:57.200Z,67715.25
2023-01-05T21:39:26.110Z,67715.25
2023-01-05T21:42:26.307Z,67716.72
2023-01-05T21:44:53.829Z,67715.03
2023-01-05T21:47:21.324Z,67713.00
2023-01-05T21:49:48.800Z,67714.69
2023-01-05T21:52:35.011Z,67716.72
2023-01-05T21:55:21.042Z,67721.25
2023-01-05T21:57:48.425Z,67724.44
2023-01-05T22:00:16.783Z,67716.38
2023-01-05T22:02:44.273Z,67716.38
2023-01-05T22:05:11.760Z,67719.56
2023-01-05T22:07:39.465Z,67717.84
2023-01-05T22:10:07.493Z,67719.56
2023-01-05T22:12:34.896Z,67718.41
2023-01-05T22:18:05.633Z,67711.28
2023-01-05T22:20:33.101Z,67709.22
2023-01-05T22:23:00.490Z,67709.81
2023-01-05T22:25:28.001Z,67710.16
2023-01-05T22:27:55.509Z,67711.09
2023-01-05T22:30:23.025Z,67714.28
2023-01-05T22:32:50.562Z,67715.97
2023-01-05T22:35:18.194Z,67714.47
2023-01-05T22:37:45.772Z,67711.28
2023-01-05T22:40:13.436Z,67716.34
2023-01-05T22:42:40.867Z,67710.53
2023-01-05T22:45:08.904Z,67708.81
2023-01-05T22:47:36.549Z,67712.78
2023-01-05T22:50:06.056Z,67711.66
2023-01-05T22:52:33.622Z,67718.78
2023-01-05T22:55:01.134Z,67713.34
2023-01-05T22:57:28.703Z,67713.91
2023-01-05T22:59:56.267Z,67712.44
2023-01-05T23:02:23.833Z,67717.31
2023-01-05T23:04:51.409Z,67718.41
2023-01-05T23:07:20.827Z,67722.38
2023-01-05T23:09:48.281Z,67716.94
2023-01-05T23:12:15.753Z,67712.06
2023-01-05T23:14:43.283Z,67715.03
2023-01-05T23:17:12.387Z,67709.41
2023-01-05T23:19:39.814Z,67706.19
2023-01-05T23:22:09.064Z,67696.28
2023-01-05T23:24:37.683Z,67702.06
2023-01-05T23:27:05.140Z,67695.69
2023-01-05T23:29:32.626Z,67702.63
2023-01-05T23:32:00.098Z,67696.06
2023-01-05T23:34:27.687Z,67703.34
2023-01-05T23:36:55.162Z,67702.06
2023-01-05T23:39:22.557Z,67701.50
2023-01-05T23:41:49.967Z,67697.75
2023-01-05T23:44:17.388Z,67699.22
2023-01-05T23:46:44.794Z,67698.13
2023-01-05T23:49:12.247Z,67694.34
2023-01-05T23:51:39.719Z,67695.88
2023-01-05T23:54:07.239Z,67694.94
2023-01-05T23:56:34.610Z,67703.53
2023-01-05T23:59:11.570Z,67690.41
